Time;durP1;ratioP1;P1;durP2;ratioP2;P2;SDS_P1;SDS_P2;PMS_P1;PMS_P2;Temp;Humidity;BMP_temperature;BMP_pressure;BME280_temperature;BME280_humidity;BME280_pressure;Samples;Min_cycle;Max_cycle;Signal;HPM_P1;HPM_P2
2023/08/30 00:00:55;;;;;;;;;;;;;;;11.20;100.00;100847.66;5033956;28;19924;-75
2023/08/30 00:03:21;;;;;;;;;;;;;;;11.14;100.00;100843.59;5035187;28;19960;-75
2023/08/30 00:05:46;;;;;;;;;;;;;;;11.20;100.00;100851.16;5037156;28;20040;-76
2023/08/30 00:08:13;;;;;;;;;;;;;;;11.12;100.00;100825.91;5035608;28;19925;-75
2023/08/30 00:10:38;;;;;;;;;;;;;;;11.36;100.00;100844.56;5031645;28;19960;-75
2023/08/30 00:13:03;;;;;;;;;;;;;;;11.38;100.00;100838.06;5045033;28;20055;-75
2023/08/30 00:15:29;;;;;;;;;;;;;;;11.35;100.00;100840.19;5034349;28;20318;-75
2023/08/30 00:17:54;;;;;;;;;;;;;;;11.36;100.00;100837.34;5032955;28;19932;-75
2023/08/30 00:20:19;;;;;;;;;;;;;;;11.36;100.00;100833.81;5033843;28;19958;-75
2023/08/30 00:22:45;;;;;;;;;;;;;;;11.38;100.00;100834.56;5029884;28;20293;-75
2023/08/30 00:25:10;;;;;;;;;;;;;;;11.31;100.00;100828.78;5031278;28;20027;-75
2023/08/30 00:27:35;;;;;;;;;;;;;;;11.32;100.00;100835.88;5035547;28;20121;-75
2023/08/30 00:30:00;;;;;;;;;;;;;;;11.30;100.00;100837.00;5032417;28;20024;-75
2023/08/30 00:32:25;;;;;;;;;;;;;;;11.31;100.00;100833.34;5026500;28;19925;-75
2023/08/30 00:34:51;;;;;;;;;;;;;;;11.38;100.00;100831.88;5032873;28;19924;-75
2023/08/30 00:37:16;;;;;;;;;;;;;;;11.40;100.00;100827.19;5034505;28;19923;-75
2023/08/30 00:39:41;;;;;;;;;;;;;;;11.39;100.00;100820.97;5032993;28;19920;-75
2023/08/30 00:42:07;;;;;;;;;;;;;;;11.40;100.00;100816.44;5028408;28;19928;-76
2023/08/30 00:44:32;;;;;;;;;;;;;;;11.39;100.00;100820.97;5027984;28;20028;-75
2023/08/30 00:46:58;;;;;;;;;;;;;;;11.37;100.00;100816.72;5033572;28;19928;-75
2023/08/30 00:49:23;;;;;;;;;;;;;;;11.35;100.00;100818.66;5030444;28;19955;-75
2023/08/30 00:51:48;;;;;;;;;;;;;;;11.32;100.00;100819.75;5031033;28;20007;-75
2023/08/30 00:54:13;;;;;;;;;;;;;;;11.27;100.00;100824.66;5032974;28;19935;-75
2023/08/30 00:56:38;;;;;;;;;;;;;;;11.21;100.00;100819.78;5045738;28;19921;-75
2023/08/30 00:59:04;;;;;;;;;;;;;;;11.19;100.00;100817.22;5031191;28;19967;-75
2023/08/30 01:01:29;;;;;;;;;;;;;;;11.17;100.00;100808.41;5030931;28;20035;-75
2023/08/30 01:03:54;;;;;;;;;;;;;;;11.11;100.00;100817.00;5036002;28;19916;-75
2023/08/30 01:06:20;;;;;;;;;;;;;;;11.08;100.00;100815.41;5030544;28;19959;-75
2023/08/30 01:08:45;;;;;;;;;;;;;;;11.06;100.00;100813.81;5034990;28;20035;-75
2023/08/30 01:11:42;;;;;;;;;;;;;;;11.07;100.00;100813.69;5037142;28;19964;-75
2023/08/30 01:14:08;;;;;;;;;;;;;;;11.00;100.00;100811.63;5002558;28;20267;-75
2023/08/30 01:16:35;;;;;;;;;;;;;;;11.03;100.00;100809.53;5045953;28;20053;-75
2023/08/30 01:19:00;;;;;;;;;;;;;;;10.99;100.00;100813.44;5041640;28;19924;-75
2023/08/30 01:21:42;;;;;;;;;;;;;;;11.02;100.00;100805.13;5052323;28;19955;-75
2023/08/30 01:24:07;;;;;;;;;;;;;;;11.09;100.00;100800.97;5041698;28;19925;-74
2023/08/30 01:26:45;;;;;;;;;;;;;;;11.20;100.00;100796.59;5040573;28;20420;-75
2023/08/30 01:29:11;;;;;;;;;;;;;;;11.25;100.00;100797.06;5036939;28;19925;-75
2023/08/30 01:31:38;;;;;;;;;;;;;;;11.24;100.00;100801.56;5031946;28;19920;-75
2023/08/30 01:34:03;;;;;;;;;;;;;;;11.21;100.00;100793.75;5037193;28;19921;-75
2023/08/30 01:36:29;;;;;;;;;;;;;;;11.17;100.00;100788.75;5034659;28;19928;-75
2023/08/30 01:38:54;;;;;;;;;;;;;;;11.12;100.00;100789.16;5035983;28;19921;-75
2023/08/30 01:41:19;;;;;;;;;;;;;;;11.09;100.00;100790.22;5034005;28;19920;-75
2023/08/30 01:43:45;;;;;;;;;;;;;;;11.04;100.00;100787.06;5036786;28;20346;-76
2023/08/30 01:46:10;;;;;;;;;;;;;;;11.03;100.00;100792.56;5036796;28;19921;-75
2023/08/30 01:48:35;;;;;;;;;;;;;;;10.97;100.00;100796.63;5033472;28;20358;-76
2023/08/30 01:51:00;;;;;;;;;;;;;;;10.89;100.00;100797.19;5021093;28;19921;-75
2023/08/30 01:53:26;;;;;;;;;;;;;;;10.72;100.00;100785.16;5033100;28;20030;-75
2023/08/30 01:55:51;;;;;;;;;;;;;;;10.65;100.00;100795.50;5047337;28;20378;-75
2023/08/30 01:58:16;;;;;;;;;;;;;;;10.59;100.00;100793.31;5033422;28;19986;-75
2023/08/30 02:00:42;;;;;;;;;;;;;;;10.59;100.00;100800.50;5036889;28;20079;-76
2023/08/30 02:03:10;;;;;;;;;;;;;;;10.68;100.00;100791.72;5053341;28;20102;-76
2023/08/30 02:05:35;;;;;;;;;;;;;;;10.76;100.00;100799.16;5036418;28;19917;-75
2023/08/30 02:08:05;;;;;;;;;;;;;;;10.85;100.00;100793.09;5020218;28;20627;-75
2023/08/30 02:10:34;;;;;;;;;;;;;;;10.86;100.00;100796.59;5031658;28;19936;-75
2023/08/30 02:12:59;;;;;;;;;;;;;;;10.74;100.00;100787.69;5034412;28;20019;-75
2023/08/30 02:15:25;;;;;;;;;;;;;;;10.66;100.00;100788.31;5032973;28;20371;-75
2023/08/30 02:17:50;;;;;;;;;;;;;;;10.65;100.00;100783.91;5035352;28;20370;-75
2023/08/30 02:20:16;;;;;;;;;;;;;;;10.64;100.00;100787.56;5036835;28;20151;-75
2023/08/30 02:22:41;;;;;;;;;;;;;;;10.57;100.00;100779.16;5035278;28;19921;-76
2023/08/30 02:25:07;;;;;;;;;;;;;;;10.46;100.00;100769.25;5035969;28;19921;-76
2023/08/30 02:27:32;;;;;;;;;;;;;;;10.60;100.00;100780.72;5030857;28;19925;-75
2023/08/30 02:29:58;;;;;;;;;;;;;;;10.63;100.00;100785.88;5029255;28;19928;-76
2023/08/30 02:32:23;;;;;;;;;;;;;;;10.62;100.00;100782.31;5025778;28;20394;-75
2023/08/30 02:34:49;;;;;;;;;;;;;;;10.68;100.00;100778.31;5029657;28;20414;-75
2023/08/30 02:37:14;;;;;;;;;;;;;;;10.75;100.00;100782.19;5031290;28;19923;-75
2023/08/30 02:39:40;;;;;;;;;;;;;;;10.77;100.00;100769.50;5025523;28;19917;-75
2023/08/30 02:42:05;;;;;;;;;;;;;;;10.85;100.00;100766.22;5015969;28;19925;-75
2023/08/30 02:44:30;;;;;;;;;;;;;;;10.86;100.00;100770.59;5030936;28;19924;-75
2023/08/30 02:46:55;;;;;;;;;;;;;;;10.83;100.00;100764.63;5014727;28;19939;-75
2023/08/30 02:49:20;;;;;;;;;;;;;;;10.77;100.00;100764.13;5030029;28;19956;-75
2023/08/30 02:51:46;;;;;;;;;;;;;;;10.75;100.00;100760.72;5030242;28;19921;-75
2023/08/30 02:54:13;;;;;;;;;;;;;;;10.74;100.00;100758.16;5028207;28;19917;-75
2023/08/30 02:56:38;;;;;;;;;;;;;;;10.68;100.00;100758.63;5030885;28;20280;-75
2023/08/30 02:59:03;;;;;;;;;;;;;;;10.63;100.00;100759.84;5028869;28;19928;-75
2023/08/30 03:01:28;;;;;;;;;;;;;;;10.56;100.00;100752.41;5028381;28;19976;-75
2023/08/30 03:03:54;;;;;;;;;;;;;;;10.47;100.00;100751.31;5029290;28;20023;-75
2023/08/30 03:06:19;;;;;;;;;;;;;;;10.46;100.00;100749.59;5013057;28;20019;-75
2023/08/30 03:08:44;;;;;;;;;;;;;;;10.42;100.00;100751.69;5045597;28;19924;-75
2023/08/30 03:11:13;;;;;;;;;;;;;;;10.40;100.00;100756.31;5029603;28;20454;-75
2023/08/30 03:13:38;;;;;;;;;;;;;;;10.43;100.00;100758.78;5029676;28;20450;-76
2023/08/30 03:16:13;;;;;;;;;;;;;;;10.43;100.00;100755.22;5030695;28;20344;-76
2023/08/30 03:18:39;;;;;;;;;;;;;;;10.47;100.00;100754.84;5026046;28;19924;-75
2023/08/30 03:21:04;;;;;;;;;;;;;;;10.48;100.00;100751.19;5031333;28;20332;-75
2023/08/30 03:23:32;;;;;;;;;;;;;;;10.56;100.00;100749.72;5028524;28;19936;-75
2023/08/30 03:25:58;;;;;;;;;;;;;;;10.59;100.00;100742.31;5030360;28;19920;-76
2023/08/30 03:28:23;;;;;;;;;;;;;;;10.62;100.00;100738.50;5027358;28;19925;-75
2023/08/30 03:30:48;;;;;;;;;;;;;;;10.58;100.00;100732.53;5029129;28;19963;-76
2023/08/30 03:33:13;;;;;;;;;;;;;;;10.54;100.00;100724.84;5031446;28;20012;-75
2023/08/30 03:35:39;;;;;;;;;;;;;;;10.47;100.00;100717.25;5036160;28;19925;-75
2023/08/30 03:38:04;;;;;;;;;;;;;;;10.49;100.00;100709.94;5029703;28;19927;-76
2023/08/30 03:40:29;;;;;;;;;;;;;;;10.47;100.00;100708.38;5019761;28;19968;-76
2023/08/30 03:42:55;;;;;;;;;;;;;;;10.53;100.00;100705.19;5031141;28;19979;-76
2023/08/30 03:45:20;;;;;;;;;;;;;;;10.48;100.00;100697.50;5024986;28;19921;-75
2023/08/30 03:47:45;;;;;;;;;;;;;;;10.46;100.00;100695.94;5026577;28;19928;-75
2023/08/30 03:50:10;;;;;;;;;;;;;;;10.39;100.00;100692.88;5026401;28;19925;-75
2023/08/30 03:52:36;;;;;;;;;;;;;;;10.36;100.00;100685.03;5025675;28;19967;-75
2023/08/30 03:55:01;;;;;;;;;;;;;;;10.34;100.00;100685.16;5027045;28;20019;-75
2023/08/30 03:57:26;;;;;;;;;;;;;;;10.33;100.00;100691.47;5031722;28;19917;-76
2023/08/30 03:59:51;;;;;;;;;;;;;;;10.33;100.00;100679.91;5029022;28;19987;-75
2023/08/30 04:02:17;;;;;;;;;;;;;;;10.31;100.00;100687.22;5029692;28;20002;-75
2023/08/30 04:04:42;;;;;;;;;;;;;;;10.33;100.00;100677.22;5033476;28;20011;-75
2023/08/30 04:07:07;;;;;;;;;;;;;;;10.39;100.00;100673.22;5035854;28;19952;-75
2023/08/30 04:09:32;;;;;;;;;;;;;;;10.46;100.00;100671.75;5028548;28;19928;-75
2023/08/30 04:11:59;;;;;;;;;;;;;;;10.44;100.00;100657.63;5036282;28;19924;-75
2023/08/30 04:14:24;;;;;;;;;;;;;;;10.44;100.00;100658.47;5034818;28;20682;-75
2023/08/30 04:16:49;;;;;;;;;;;;;;;10.42;100.00;100656.88;5049073;28;19944;-75
2023/08/30 04:19:14;;;;;;;;;;;;;;;10.47;100.00;100646.63;5030340;28;19921;-76
2023/08/30 04:21:39;;;;;;;;;;;;;;;10.55;100.00;100648.69;5024537;28;19925;-75
2023/08/30 04:24:05;;;;;;;;;;;;;;;10.58;100.00;100648.44;5029777;28;19913;-76
2023/08/30 04:26:30;;;;;;;;;;;;;;;10.65;100.00;100655.03;5030705;28;19931;-76
2023/08/30 04:28:55;;;;;;;;;;;;;;;10.73;100.00;100657.94;5030321;28;20253;-77
2023/08/30 04:31:20;;;;;;;;;;;;;;;10.69;100.00;100650.25;5027536;28;19921;-76
2023/08/30 04:33:46;;;;;;;;;;;;;;;10.59;100.00;100645.66;5024897;28;19921;-76
2023/08/30 04:36:11;;;;;;;;;;;;;;;10.54;100.00;100637.13;5027933;28;19923;-76
2023/08/30 04:38:36;;;;;;;;;;;;;;;10.59;100.00;100644.78;5029166;28;19927;-76
2023/08/30 04:41:02;;;;;;;;;;;;;;;10.61;100.00;100646.34;5022997;28;19925;-76
2023/08/30 04:43:27;;;;;;;;;;;;;;;10.59;100.00;100644.78;5012888;28;20343;-76
2023/08/30 04:45:53;;;;;;;;;;;;;;;10.59;100.00;100648.34;5027924;28;19939;-75
2023/08/30 04:48:19;;;;;;;;;;;;;;;10.65;100.00;100649.66;5024833;28;20483;-76
2023/08/30 04:50:44;;;;;;;;;;;;;;;10.68;100.00;100645.88;5026049;28;19921;-76
2023/08/30 04:53:09;;;;;;;;;;;;;;;10.72;100.00;100640.13;5026599;28;19929;-76
2023/08/30 04:55:34;;;;;;;;;;;;;;;10.72;100.00;100634.78;5024042;28;19944;-76
2023/08/30 04:57:59;;;;;;;;;;;;;;;10.74;100.00;100637.31;5026422;28;20035;-76
2023/08/30 05:00:25;;;;;;;;;;;;;;;10.79;100.00;100637.78;5024426;28;19925;-75
2023/08/30 05:02:50;;;;;;;;;;;;;;;10.83;100.00;100638.38;5024265;28;20299;-75
2023/08/30 05:05:15;;;;;;;;;;;;;;;10.94;100.00;100641.06;5024229;28;19921;-77
2023/08/30 05:07:40;;;;;;;;;;;;;;;10.93;100.00;100639.34;5029122;28;20458;-76
2023/08/30 05:10:06;;;;;;;;;;;;;;;11.01;100.00;100636.03;5024777;28;20039;-76
2023/08/30 05:12:32;;;;;;;;;;;;;;;11.08;100.00;100632.69;5025119;28;19925;-76
2023/08/30 05:14:58;;;;;;;;;;;;;;;11.06;100.00;100625.75;5028664;28;19916;-77
2023/08/30 05:17:23;;;;;;;;;;;;;;;11.14;100.00;100625.94;5028533;28;20266;-77
2023/08/30 05:19:48;;;;;;;;;;;;;;;11.24;100.00;100626.06;5029153;28;19924;-75
2023/08/30 05:22:14;;;;;;;;;;;;;;;11.35;100.00;100615.22;5027386;28;19968;-77
2023/08/30 05:24:39;;;;;;;;;;;;;;;11.46;100.00;100626.91;5030178;28;19921;-77
2023/08/30 05:27:04;;;;;;;;;;;;;;;11.54;100.00;100619.03;5029977;28;19994;-77
2023/08/30 05:29:29;;;;;;;;;;;;;;;11.64;100.00;100616.44;5032865;28;20435;-76
2023/08/30 05:31:55;;;;;;;;;;;;;;;11.71;100.00;100612.19;5031648;28;20024;-76
2023/08/30 05:34:20;;;;;;;;;;;;;;;11.77;100.00;100613.53;5029213;28;20319;-77
2023/08/30 05:36:45;;;;;;;;;;;;;;;11.82;100.00;100609.44;5029274;28;19986;-76
2023/08/30 05:39:10;;;;;;;;;;;;;;;11.89;100.00;100607.06;5025697;28;19980;-76
2023/08/30 05:41:36;;;;;;;;;;;;;;;11.98;100.00;100611.66;5026063;28;19967;-77
2023/08/30 05:44:01;;;;;;;;;;;;;;;12.02;100.00;100609.56;5029884;28;20062;-77
2023/08/30 05:46:26;;;;;;;;;;;;;;;12.04;100.00;100609.44;5026642;28;20595;-76
2023/08/30 05:48:51;;;;;;;;;;;;;;;12.12;100.00;100602.41;5032907;28;20070;-77
2023/08/30 05:51:17;;;;;;;;;;;;;;;12.19;100.00;100604.53;5026220;28;19921;-77
2023/08/30 05:53:42;;;;;;;;;;;;;;;12.21;100.00;100600.72;5011648;28;20027;-77
2023/08/30 05:56:07;;;;;;;;;;;;;;;12.25;100.00;100596.78;5033105;28;20002;-76
2023/08/30 05:58:32;;;;;;;;;;;;;;;12.32;100.00;100597.06;5029124;28;20314;-76
2023/08/30 06:00:59;;;;;;;;;;;;;;;12.39;100.00;100597.38;5030278;28;20314;-76
2023/08/30 06:03:25;;;;;;;;;;;;;;;12.46;100.00;100595.84;5037247;28;20003;-76
2023/08/30 06:05:50;;;;;;;;;;;;;;;12.54;100.00;100600.53;5036529;28;20340;-77
2023/08/30 06:08:17;;;;;;;;;;;;;;;12.52;100.00;100597.97;5031696;28;20312;-76
2023/08/30 06:10:42;;;;;;;;;;;;;;;12.61;100.00;100596.31;5026723;28;19940;-76
2023/08/30 06:13:07;;;;;;;;;;;;;;;12.70;100.00;100583.84;5029935;28;19921;-80
2023/08/30 06:15:33;;;;;;;;;;;;;;;12.71;100.00;100583.69;5031647;28;19924;-76
2023/08/30 06:17:58;;;;;;;;;;;;;;;12.78;100.00;100588.50;5032924;28;19921;-76
2023/08/30 06:20:24;;;;;;;;;;;;;;;12.88;100.00;100587.53;5030825;28;20122;-77
2023/08/30 06:22:49;;;;;;;;;;;;;;;12.90;100.00;100579.31;5029481;28;19914;-77
2023/08/30 06:25:14;;;;;;;;;;;;;;;12.96;100.00;100583.28;5033239;28;19917;-75
2023/08/30 06:27:41;;;;;;;;;;;;;;;13.00;100.00;100585.53;5012738;28;19932;-74
2023/08/30 06:30:06;;;;;;;;;;;;;;;13.07;100.00;100582.28;5030014;28;19920;-75
2023/08/30 06:32:33;;;;;;;;;;;;;;;13.04;100.00;100581.56;5012929;28;19928;-77
2023/08/30 06:34:59;;;;;;;;;;;;;;;13.10;100.00;100580.19;5028367;28;19917;-77
2023/08/30 06:37:24;;;;;;;;;;;;;;;13.07;100.00;100584.97;5031611;28;20291;-79
2023/08/30 06:39:50;;;;;;;;;;;;;;;13.14;100.00;100586.13;5029676;28;20158;-78
2023/08/30 06:42:16;;;;;;;;;;;;;;;13.19;100.00;100576.59;5017578;28;19932;-78
2023/08/30 06:44:41;;;;;;;;;;;;;;;13.22;100.00;100572.78;5028955;28;19928;-76
2023/08/30 06:47:06;;;;;;;;;;;;;;;13.27;100.00;100575.06;5033403;28;20418;-78
2023/08/30 06:49:31;;;;;;;;;;;;;;;13.30;100.00;100574.75;5029709;28;20011;-78
2023/08/30 06:51:57;;;;;;;;;;;;;;;13.35;100.00;100575.19;5031713;28;19956;-78
2023/08/30 06:54:22;;;;;;;;;;;;;;;13.39;100.00;100573.88;5033220;28;19932;-77
2023/08/30 06:56:57;;;;;;;;;;;;;;;13.44;100.00;100578.91;5034052;28;20230;-78
2023/08/30 06:59:22;;;;;;;;;;;;;;;13.46;100.00;100580.44;5030466;28;20090;-78
2023/08/30 07:01:47;;;;;;;;;;;;;;;13.54;100.00;100576.16;5034265;28;20051;-78
2023/08/30 07:04:13;;;;;;;;;;;;;;;13.63;100.00;100580.72;5032034;28;19960;-77
2023/08/30 07:06:38;;;;;;;;;;;;;;;13.69;100.00;100590.88;5026582;28;20024;-78
2023/08/30 07:09:06;;;;;;;;;;;;;;;13.60;100.00;100587.22;5030404;28;19920;-77
2023/08/30 07:11:31;;;;;;;;;;;;;;;13.60;100.00;100589.91;5028214;28;19928;-76
2023/08/30 07:13:56;;;;;;;;;;;;;;;13.48;100.00;100594.63;5034111;28;19948;-78
2023/08/30 07:16:22;;;;;;;;;;;;;;;13.49;100.00;100598.19;5032404;28;20411;-77
2023/08/30 07:18:47;;;;;;;;;;;;;;;13.52;100.00;100595.19;5034630;28;20916;-77
2023/08/30 07:21:12;;;;;;;;;;;;;;;13.48;100.00;100597.31;5032039;28;20012;-77
2023/08/30 07:23:37;;;;;;;;;;;;;;;13.15;100.00;100604.84;5031591;28;19967;-74
2023/08/30 07:26:04;;;;;;;;;;;;;;;13.06;100.00;100597.63;5027901;28;19924;-76
2023/08/30 07:28:29;;;;;;;;;;;;;;;13.08;100.00;100606.44;5028090;28;19991;-75
2023/08/30 07:31:01;;;;;;;;;;;;;;;13.03;100.00;100595.22;5028593;28;19978;-75
2023/08/30 07:33:28;;;;;;;;;;;;;;;12.93;100.00;100584.44;5024616;28;20135;-74
2023/08/30 07:35:53;;;;;;;;;;;;;;;12.94;100.00;100575.34;5029595;28;19920;-74
2023/08/30 07:38:18;;;;;;;;;;;;;;;12.89;100.00;100575.75;5029992;28;19929;-76
2023/08/30 07:40:44;;;;;;;;;;;;;;;12.65;100.00;100534.91;5010503;28;20368;-76
2023/08/30 07:43:09;;;;;;;;;;;;;;;12.86;100.00;100557.19;5027337;28;20379;-77
2023/08/30 07:45:34;;;;;;;;;;;;;;;12.87;100.00;100547.28;5028034;28;19952;-76
2023/08/30 07:47:59;;;;;;;;;;;;;;;12.93;100.00;100538.63;5023013;28;20602;-76
2023/08/30 07:50:25;;;;;;;;;;;;;;;12.99;100.00;100562.28;5029685;28;20371;-75
2023/08/30 07:52:50;;;;;;;;;;;;;;;12.96;100.00;100549.13;5026213;28;20289;-77
2023/08/30 07:55:15;;;;;;;;;;;;;;;13.01;100.00;100549.53;5025062;28;20450;-75
2023/08/30 07:57:40;;;;;;;;;;;;;;;13.02;100.00;100551.22;5032671;28;20393;-76
2023/08/30 08:00:06;;;;;;;;;;;;;;;13.00;100.00;100547.81;5024617;28;19943;-77
2023/08/30 08:02:31;;;;;;;;;;;;;;;13.02;100.00;100542.31;5029720;28;20035;-75
2023/08/30 08:04:56;;;;;;;;;;;;;;;13.03;100.00;100539.44;5029673;28;19998;-74
2023/08/30 08:07:21;;;;;;;;;;;;;;;13.00;100.00;100534.34;5029867;28;19975;-77
2023/08/30 08:09:47;;;;;;;;;;;;;;;13.01;100.00;100527.97;5025704;28;20044;-75
2023/08/30 08:12:12;;;;;;;;;;;;;;;13.03;100.00;100528.66;5028508;28;19921;-73
2023/08/30 08:14:37;;;;;;;;;;;;;;;12.99;100.00;100527.25;5022618;28;19935;-75
2023/08/30 08:17:04;;;;;;;;;;;;;;;13.06;100.00;100532.94;5028445;28;20418;-77
2023/08/30 08:19:29;;;;;;;;;;;;;;;13.11;100.00;100519.03;5023814;28;19920;-74
2023/08/30 08:21:54;;;;;;;;;;;;;;;13.00;100.00;100522.72;5030167;28;19978;-74
2023/08/30 08:24:19;;;;;;;;;;;;;;;13.05;100.00;100517.75;5026325;28;19964;-77
2023/08/30 08:26:45;;;;;;;;;;;;;;;13.06;100.00;100516.78;5025962;28;19920;-72
2023/08/30 08:29:11;;;;;;;;;;;;;;;13.12;100.00;100518.03;5025721;28;19924;-73
2023/08/30 08:31:36;;;;;;;;;;;;;;;12.95;100.00;100517.78;5027408;28;19964;-75
2023/08/30 08:34:06;;;;;;;;;;;;;;;12.99;100.00;100512.94;5024873;28;20116;-75
2023/08/30 08:36:31;;;;;;;;;;;;;;;12.94;100.00;100512.50;5027486;28;20023;-76
2023/08/30 08:38:56;;;;;;;;;;;;;;;12.92;100.00;100518.06;5027535;28;20289;-74
2023/08/30 08:41:21;;;;;;;;;;;;;;;12.94;100.00;100504.44;5031232;28;20394;-74
2023/08/30 08:43:47;;;;;;;;;;;;;;;12.93;100.00;100500.03;5009377;28;20387;-73
2023/08/30 08:46:12;;;;;;;;;;;;;;;12.67;100.00;100468.28;5026870;28;20500;-74
2023/08/30 08:48:39;;;;;;;;;;;;;;;12.78;100.00;100478.94;5027192;28;20355;-72
2023/08/30 08:51:04;;;;;;;;;;;;;;;12.90;100.00;100493.09;5023615;28;20449;-74
2023/08/30 08:53:30;;;;;;;;;;;;;;;12.93;100.00;100497.34;5026272;28;19924;-73
2023/08/30 08:55:55;;;;;;;;;;;;;;;12.95;100.00;100496.22;5024017;28;19920;-74
2023/08/30 08:58:20;;;;;;;;;;;;;;;12.95;100.00;100498.03;5028880;28;19927;-74
2023/08/30 09:00:45;;;;;;;;;;;;;;;13.01;100.00;100495.63;5025114;28;19963;-73
2023/08/30 09:03:11;;;;;;;;;;;;;;;13.05;100.00;100496.22;5028202;28;19927;-74
2023/08/30 09:05:39;;;;;;;;;;;;;;;13.10;100.00;100490.38;5026468;28;20334;-77
2023/08/30 09:08:05;;;;;;;;;;;;;;;13.10;100.00;100487.69;5025279;28;19947;-75
2023/08/30 09:10:33;;;;;;;;;;;;;;;13.11;100.00;100489.38;5025086;28;19968;-71
2023/08/30 09:12:58;;;;;;;;;;;;;;;13.12;100.00;100493.78;5010951;28;19925;-72
2023/08/30 09:15:30;;;;;;;;;;;;;;;13.16;100.00;100500.59;5026919;28;20291;-75
2023/08/30 09:17:56;;;;;;;;;;;;;;;13.23;100.00;100495.44;5032471;28;20336;-75
2023/08/30 09:20:21;;;;;;;;;;;;;;;13.15;100.00;100490.78;5025560;28;19940;-78
2023/08/30 09:22:46;;;;;;;;;;;;;;;13.23;100.00;100501.72;5028798;28;20270;-74
2023/08/30 09:25:22;;;;;;;;;;;;;;;13.28;100.00;100494.00;5028531;28;19983;-76
2023/08/30 09:27:47;;;;;;;;;;;;;;;13.34;100.00;100495.28;5026816;28;19987;-72
2023/08/30 09:30:12;;;;;;;;;;;;;;;13.42;100.00;100492.72;5028454;28;19929;-73
2023/08/30 09:32:38;;;;;;;;;;;;;;;13.60;100.00;100495.50;5023249;28;20277;-73
2023/08/30 09:35:04;;;;;;;;;;;;;;;13.80;100.00;100488.19;5029725;28;21097;-73
2023/08/30 09:37:29;;;;;;;;;;;;;;;13.88;100.00;100490.13;5030581;28;20383;-74
2023/08/30 09:39:54;;;;;;;;;;;;;;;13.92;100.00;100499.63;5023579;28;20007;-72
2023/08/30 09:42:19;;;;;;;;;;;;;;;13.99;100.00;100486.38;5029792;28;19921;-75
2023/08/30 09:44:44;;;;;;;;;;;;;;;14.06;100.00;100479.38;5032879;28;20003;-74
2023/08/30 09:47:10;;;;;;;;;;;;;;;14.19;100.00;100483.56;5031265;28;20227;-75
2023/08/30 09:49:45;;;;;;;;;;;;;;;14.20;100.00;100474.47;5033069;28;19955;-74
2023/08/30 09:52:10;;;;;;;;;;;;;;;14.24;100.00;100492.06;5025946;28;19917;-74
2023/08/30 09:54:38;;;;;;;;;;;;;;;14.20;100.00;100488.81;5029009;28;19928;-74
2023/08/30 09:57:03;;;;;;;;;;;;;;;14.08;100.00;100490.03;5027617;28;19955;-75
2023/08/30 09:59:28;;;;;;;;;;;;;;;14.18;100.00;100493.53;5025935;28;20359;-74
2023/08/30 10:01:53;;;;;;;;;;;;;;;14.20;100.00;100487.97;5030780;28;19921;-72
2023/08/30 10:04:19;;;;;;;;;;;;;;;14.33;100.00;100476.78;5028802;28;19958;-75
2023/08/30 10:06:44;;;;;;;;;;;;;;;14.33;100.00;100483.06;5027209;28;20233;-74
2023/08/30 10:09:09;;;;;;;;;;;;;;;14.29;100.00;100483.53;5025206;28;20362;-75
2023/08/30 10:11:35;;;;;;;;;;;;;;;14.57;100.00;100480.75;5031863;28;20626;-77
2023/08/30 10:14:01;;;;;;;;;;;;;;;14.74;100.00;100479.94;5028043;28;19932;-73
2023/08/30 10:16:26;;;;;;;;;;;;;;;14.72;100.00;100470.25;5032522;28;20351;-74
2023/08/30 10:18:52;;;;;;;;;;;;;;;14.85;100.00;100473.44;5035640;28;20438;-75
2023/08/30 10:21:18;;;;;;;;;;;;;;;14.95;100.00;100474.19;5028498;28;20026;-71
2023/08/30 10:23:43;;;;;;;;;;;;;;;15.19;100.00;100483.47;5030459;28;19921;-72
2023/08/30 10:26:09;;;;;;;;;;;;;;;15.20;100.00;100465.38;5032445;28;20457;-73
2023/08/30 10:28:34;;;;;;;;;;;;;;;15.75;100.00;100472.31;5030481;28;19924;-75
2023/08/30 10:30:59;;;;;;;;;;;;;;;15.97;100.00;100468.16;5013211;28;19921;-75
2023/08/30 10:33:25;;;;;;;;;;;;;;;16.17;100.00;100462.47;5031275;28;20447;-73
2023/08/30 10:35:51;;;;;;;;;;;;;;;16.17;100.00;100457.91;5023296;28;19931;-76
2023/08/30 10:38:29;;;;;;;;;;;;;;;15.93;100.00;100447.00;5031601;28;19920;-72
2023/08/30 10:40:54;;;;;;;;;;;;;;;16.09;100.00;100448.91;5030416;28;19942;-75
2023/08/30 10:43:30;;;;;;;;;;;;;;;16.36;100.00;100461.31;5030400;28;19925;-75
2023/08/30 10:45:59;;;;;;;;;;;;;;;16.22;100.00;100456.56;5030266;28;20359;-76
2023/08/30 10:48:33;;;;;;;;;;;;;;;16.86;100.00;100447.78;5027500;28;20393;-75
2023/08/30 10:50:58;;;;;;;;;;;;;;;17.20;100.00;100449.47;5027715;28;19958;-72
2023/08/30 10:53:28;;;;;;;;;;;;;;;17.56;100.00;100442.75;5032684;28;19994;-74
2023/08/30 10:56:07;;;;;;;;;;;;;;;18.03;100.00;100436.44;5029473;28;20004;-76
2023/08/30 10:58:41;;;;;;;;;;;;;;;18.29;100.00;100421.69;5028517;28;19927;-76
2023/08/30 11:01:07;;;;;;;;;;;;;;;18.56;100.00;100433.91;5030277;28;19927;-75
2023/08/30 11:03:33;;;;;;;;;;;;;;;18.25;100.00;100432.09;5027042;28;19965;-75
2023/08/30 11:06:01;;;;;;;;;;;;;;;18.77;100.00;100426.09;5031249;28;19925;-76
2023/08/30 11:08:26;;;;;;;;;;;;;;;18.74;100.00;100417.28;5011788;28;19925;-77
2023/08/30 11:10:59;;;;;;;;;;;;;;;18.53;100.00;100412.50;5031505;28;19931;-76
2023/08/30 11:13:26;;;;;;;;;;;;;;;17.93;100.00;100408.66;5034089;28;19990;-77
2023/08/30 11:15:51;;;;;;;;;;;;;;;17.77;100.00;100417.72;5031425;28;19921;-75
2023/08/30 11:18:18;;;;;;;;;;;;;;;17.60;100.00;100411.53;5013332;28;19959;-74
2023/08/30 11:20:44;;;;;;;;;;;;;;;17.34;100.00;100428.94;5030156;28;20276;-77
2023/08/30 11:23:09;;;;;;;;;;;;;;;17.29;100.00;100429.47;5032618;28;20486;-75
2023/08/30 11:25:34;;;;;;;;;;;;;;;17.15;100.00;100439.16;5034684;28;20416;-76
2023/08/30 11:28:03;;;;;;;;;;;;;;;17.13;100.00;100424.06;5013148;28;20047;-73
2023/08/30 11:30:28;;;;;;;;;;;;;;;17.87;100.00;100458.25;5028062;28;19924;-74
2023/08/30 11:32:55;;;;;;;;;;;;;;;18.19;100.00;100443.66;5028087;28;20022;-73
2023/08/30 11:35:20;;;;;;;;;;;;;;;18.41;100.00;100447.44;5013173;28;20729;-74
2023/08/30 11:37:45;;;;;;;;;;;;;;;18.71;100.00;100443.97;5025712;28;19920;-75
2023/08/30 11:40:10;;;;;;;;;;;;;;;19.58;100.00;100439.91;5025310;28;20015;-74
2023/08/30 11:42:36;;;;;;;;;;;;;;;20.55;100.00;100439.75;5029435;28;19917;-74
2023/08/30 11:45:02;;;;;;;;;;;;;;;20.04;100.00;100446.97;5030122;28;19967;-75
2023/08/30 11:47:27;;;;;;;;;;;;;;;19.73;100.00;100442.59;5028046;28;20216;-75
2023/08/30 11:49:53;;;;;;;;;;;;;;;19.42;100.00;100445.53;5026325;28;19959;-73
2023/08/30 11:52:19;;;;;;;;;;;;;;;19.31;100.00;100444.09;5028746;28;19924;-75
2023/08/30 11:54:45;;;;;;;;;;;;;;;19.06;100.00;100446.25;5026544;28;20449;-74
2023/08/30 11:57:10;;;;;;;;;;;;;;;18.70;100.00;100454.00;5024584;28;19921;-73
2023/08/30 11:59:35;;;;;;;;;;;;;;;19.09;100.00;100446.72;5028959;28;19924;-74
2023/08/30 12:02:01;;;;;;;;;;;;;;;19.99;100.00;100445.88;5028580;28;19964;-75
2023/08/30 12:04:26;;;;;;;;;;;;;;;21.12;100.00;100439.81;5027222;28;20301;-73
2023/08/30 12:06:53;;;;;;;;;;;;;;;22.43;100.00;100427.19;5024486;28;20020;-72
2023/08/30 12:09:21;;;;;;;;;;;;;;;23.39;98.21;100437.09;5029014;28;20353;-72
2023/08/30 12:11:46;;;;;;;;;;;;;;;23.17;89.24;100435.41;5029927;28;19921;-73
2023/08/30 12:14:11;;;;;;;;;;;;;;;22.20;89.15;100441.22;5028700;28;19935;-72
2023/08/30 12:16:37;;;;;;;;;;;;;;;21.07;97.87;100455.94;5012161;28;19927;-73
2023/08/30 12:19:09;;;;;;;;;;;;;;;20.51;100.00;100463.00;5030610;28;19932;-73
2023/08/30 12:21:46;;;;;;;;;;;;;;;20.94;100.00;100465.72;5026923;28;19959;-74